Time;durP1;ratioP1;P1;durP2;ratioP2;P2;SDS_P1;SDS_P2;PMS_P1;PMS_P2;Temp;Humidity;BMP_temperature;BMP_pressure;BME280_temperature;BME280_humidity;BME280_pressure;Samples;Min_cycle;Max_cycle;Signal;HPM_P1;HPM_P2
2022/01/08 00:01:30;;;;;;;3.88;3.55;;;;;;;;;;5034510;28;20041;-64
2022/01/08 00:03:55;;;;;;;4.72;4.22;;;;;;;;;;5034112;28;20355;-64
2022/01/08 00:06:20;;;;;;;5.05;4.18;;;;;;;;;;5033888;28;20041;-64
2022/01/08 00:08:46;;;;;;;3.95;3.60;;;;;;;;;;5034829;28;20052;-65
2022/01/08 00:11:17;;;;;;;4.45;4.05;;;;;;;;;;5031698;28;20210;-64
2022/01/08 00:13:43;;;;;;;4.90;4.43;;;;;;;;;;5037235;28;20466;-64
2022/01/08 00:16:08;;;;;;;5.25;4.10;;;;;;;;;;5035583;28;20036;-64
2022/01/08 00:18:34;;;;;;;4.13;3.75;;;;;;;;;;5036589;28;20037;-65
2022/01/08 00:20:59;;;;;;;4.43;4.03;;;;;;;;;;5036915;28;20033;-64
2022/01/08 00:23:25;;;;;;;4.20;3.80;;;;;;;;;;5034788;28;20033;-64
2022/01/08 00:25:50;;;;;;;4.07;3.67;;;;;;;;;;5037160;28;20348;-64
2022/01/08 00:28:18;;;;;;;3.78;3.47;;;;;;;;;;5037192;28;20289;-64
2022/01/08 00:30:45;;;;;;;4.50;3.88;;;;;;;;;;5038442;28;20064;-64
2022/01/08 00:33:10;;;;;;;6.40;4.10;;;;;;;;;;5034892;28;20375;-64
2022/01/08 00:35:35;;;;;;;4.13;3.78;;;;;;;;;;5037235;28;20037;-64
2022/01/08 00:38:01;;;;;;;4.03;3.63;;;;;;;;;;5035070;28;20111;-65
2022/01/08 00:40:26;;;;;;;3.83;3.53;;;;;;;;;;5037261;28;20025;-64
2022/01/08 00:42:52;;;;;;;3.92;3.63;;;;;;;;;;5035969;28;20033;-65
2022/01/08 00:45:17;;;;;;;4.00;3.70;;;;;;;;;;5034285;28;20029;-63
2022/01/08 00:47:42;;;;;;;4.00;3.70;;;;;;;;;;5034725;28;20103;-63
2022/01/08 00:50:10;;;;;;;4.40;4.00;;;;;;;;;;5036371;28;20035;-64
2022/01/08 00:52:35;;;;;;;3.78;3.47;;;;;;;;;;5033865;28;20052;-64
2022/01/08 00:55:01;;;;;;;4.20;3.80;;;;;;;;;;5037617;28;20018;-64
2022/01/08 00:57:26;;;;;;;4.03;3.63;;;;;;;;;;5033822;28;20029;-64
2022/01/08 00:59:52;;;;;;;4.28;3.88;;;;;;;;;;5036072;28;20567;-63
2022/01/08 01:02:17;;;;;;;4.70;4.22;;;;;;;;;;5033919;28;20040;-64
2022/01/08 01:04:42;;;;;;;4.65;3.40;;;;;;;;;;5035205;28;20115;-63
2022/01/08 01:07:08;;;;;;;3.45;3.15;;;;;;;;;;5033181;28;20029;-64
2022/01/08 01:09:33;;;;;;;3.85;3.55;;;;;;;;;;5033014;28;20029;-63
2022/01/08 01:11:59;;;;;;;4.07;3.70;;;;;;;;;;5034375;28;20040;-63
2022/01/08 01:14:25;;;;;;;5.93;4.97;;;;;;;;;;5036894;28;20348;-64
2022/01/08 01:16:51;;;;;;;4.05;3.65;;;;;;;;;;5035510;28;20032;-65
2022/01/08 01:19:16;;;;;;;3.80;3.45;;;;;;;;;;5034594;28;20060;-65
2022/01/08 01:21:42;;;;;;;3.80;3.50;;;;;;;;;;5032041;28;20136;-63
2022/01/08 01:24:16;;;;;;;4.40;4.00;;;;;;;;;;5035091;28;20121;-64
2022/01/08 01:26:54;;;;;;;4.20;3.80;;;;;;;;;;5039608;28;20029;-63
2022/01/08 01:43:06;;;;;;;3.95;3.60;;;;;;;;;;5035868;28;20795;-65
2022/01/08 01:48:16;;;;;;;4.35;3.95;;;;;;;;;;5037895;28;20025;-65
2022/01/08 01:50:41;;;;;;;4.50;4.05;;;;;;;;;;5037578;28;20043;-65
2022/01/08 01:53:07;;;;;;;12.82;4.60;;;;;;;;;;5037997;28;20036;-65
2022/01/08 01:55:34;;;;;;;4.18;3.78;;;;;;;;;;5039934;28;20052;-65
2022/01/08 01:58:00;;;;;;;4.88;4.40;;;;;;;;;;5039758;28;20456;-65
2022/01/08 02:00:25;;;;;;;4.30;3.90;;;;;;;;;;5037675;28;20033;-65
2022/01/08 02:02:51;;;;;;;5.38;3.63;;;;;;;;;;5038170;28;20053;-65
2022/01/08 02:05:16;;;;;;;3.50;3.20;;;;;;;;;;5036372;28;20090;-65
2022/01/08 02:07:42;;;;;;;4.32;3.92;;;;;;;;;;5038062;28;20030;-65
2022/01/08 02:10:08;;;;;;;4.32;3.92;;;;;;;;;;5037541;28;20040;-64
2022/01/08 02:12:33;;;;;;;4.50;4.10;;;;;;;;;;5037888;28;20037;-65
2022/01/08 02:14:59;;;;;;;7.55;4.35;;;;;;;;;;5037849;28;20088;-65
2022/01/08 02:17:24;;;;;;;3.83;3.50;;;;;;;;;;5036467;28;20116;-65
2022/01/08 02:19:54;;;;;;;4.82;4.18;;;;;;;;;;5040473;28;20062;-65
2022/01/08 02:22:20;;;;;;;6.40;4.30;;;;;;;;;;5038846;28;20040;-64
2022/01/08 02:24:47;;;;;;;3.60;3.30;;;;;;;;;;5039215;28;20033;-65
2022/01/08 02:27:14;;;;;;;4.22;3.75;;;;;;;;;;5038463;28;20040;-65
2022/01/08 02:29:40;;;;;;;4.03;3.42;;;;;;;;;;5037177;28;20048;-65
2022/01/08 02:32:08;;;;;;;3.85;3.47;;;;;;;;;;5038073;28;20530;-64
2022/01/08 02:34:37;;;;;;;3.67;3.38;;;;;;;;;;5039042;28;20770;-65
2022/01/08 02:37:04;;;;;;;3.55;3.25;;;;;;;;;;5038285;28;20152;-64
2022/01/08 02:39:34;;;;;;;3.88;3.58;;;;;;;;;;5046004;28;20048;-64
2022/01/08 02:41:59;;;;;;;3.55;3.25;;;;;;;;;;5038345;28;20037;-64
2022/01/08 02:44:26;;;;;;;4.05;3.30;;;;;;;;;;5038512;28;20447;-65
2022/01/08 02:46:52;;;;;;;4.45;3.38;;;;;;;;;;5039702;28;20041;-64
2022/01/08 02:49:18;;;;;;;3.45;2.97;;;;;;;;;;5037348;28;20075;-64
2022/01/08 02:51:44;;;;;;;4.22;3.25;;;;;;;;;;5036379;28;20065;-64
2022/01/08 02:54:11;;;;;;;3.40;3.10;;;;;;;;;;5040123;28;20048;-64
2022/01/08 02:56:40;;;;;;;3.72;3.40;;;;;;;;;;5038064;28;20037;-64
2022/01/08 02:59:06;;;;;;;4.72;4.13;;;;;;;;;;5038670;28;20778;-63
2022/01/08 03:01:32;;;;;;;4.22;3.83;;;;;;;;;;5038594;28;20413;-65
2022/01/08 03:03:58;;;;;;;4.15;3.45;;;;;;;;;;5035899;28;20025;-65
2022/01/08 03:06:23;;;;;;;3.67;3.30;;;;;;;;;;5038012;28;20044;-65
2022/01/08 03:08:49;;;;;;;3.75;3.35;;;;;;;;;;5035198;28;20022;-66
2022/01/08 03:11:15;;;;;;;3.50;3.20;;;;;;;;;;5037852;28;20041;-65
2022/01/08 03:13:40;;;;;;;3.83;3.45;;;;;;;;;;5033638;28;20433;-64
2022/01/08 03:16:06;;;;;;;3.92;3.35;;;;;;;;;;5032009;28;20071;-66
2022/01/08 03:18:32;;;;;;;3.67;3.17;;;;;;;;;;5033133;28;20044;-63
2022/01/08 03:21:13;;;;;;;4.40;3.50;;;;;;;;;;5039510;28;20076;-63
2022/01/08 03:23:46;;;;;;;4.30;3.63;;;;;;;;;;5036882;28;20475;-62
2022/01/08 03:26:12;;;;;;;4.28;3.80;;;;;;;;;;5039383;28;20477;-62
2022/01/08 03:28:37;;;;;;;4.07;3.67;;;;;;;;;;5035283;28;20037;-62
2022/01/08 03:31:03;;;;;;;3.45;3.13;;;;;;;;;;5035788;28;20037;-64
2022/01/08 03:33:28;;;;;;;3.33;3.03;;;;;;;;;;5039047;28;20036;-66
2022/01/08 03:35:54;;;;;;;3.05;2.75;;;;;;;;;;5038313;28;20644;-68
2022/01/08 03:38:19;;;;;;;3.40;3.10;;;;;;;;;;5036746;28;20359;-69
2022/01/08 03:40:45;;;;;;;3.65;3.35;;;;;;;;;;5032714;28;20144;-69
2022/01/08 03:43:10;;;;;;;3.08;2.78;;;;;;;;;;5034809;28;20071;-71
2022/01/08 03:45:35;;;;;;;3.20;2.90;;;;;;;;;;5035146;28;20420;-73
2022/01/08 03:50:46;;;;;;;2.80;2.50;;;;;;;;;;5036284;28;20045;-73
2022/01/08 03:53:12;;;;;;;2.85;2.55;;;;;;;;;;5037296;28;20134;-75
2022/01/08 03:55:38;;;;;;;3.63;3.03;;;;;;;;;;5037131;28;20459;-75
2022/01/08 03:58:03;;;;;;;2.80;2.35;;;;;;;;;;5037906;28;20124;-76
2022/01/08 04:00:29;;;;;;;3.08;2.63;;;;;;;;;;5037228;28;20785;-76
2022/01/08 04:02:54;;;;;;;2.70;2.38;;;;;;;;;;5038614;28;20029;-76
2022/01/08 04:05:20;;;;;;;3.05;2.75;;;;;;;;;;5035507;28;20691;-74
2022/01/08 04:07:45;;;;;;;2.75;2.35;;;;;;;;;;5036420;28;20029;-73
2022/01/08 04:10:11;;;;;;;3.25;2.95;;;;;;;;;;5035959;28;20040;-73
2022/01/08 04:12:44;;;;;;;3.05;2.53;;;;;;;;;;5034969;28;20378;-73
2022/01/08 04:17:47;;;;;;;3.00;2.70;;;;;;;;;;5035521;28;20476;-74
2022/01/08 04:20:13;;;;;;;3.10;2.80;;;;;;;;;;5036516;28;20033;-73
2022/01/08 04:22:38;;;;;;;3.03;2.72;;;;;;;;;;5041200;28;20425;-73
2022/01/08 04:25:04;;;;;;;2.95;2.65;;;;;;;;;;5034707;28;20040;-73
2022/01/08 04:27:29;;;;;;;3.20;2.90;;;;;;;;;;5037076;28;20477;-74
2022/01/08 04:29:55;;;;;;;3.05;2.50;;;;;;;;;;5036418;28;20025;-73
2022/01/08 04:32:20;;;;;;;3.25;2.95;;;;;;;;;;5035486;28;20049;-72
2022/01/08 04:34:46;;;;;;;3.67;3.30;;;;;;;;;;5033188;28;20482;-73
2022/01/08 04:37:11;;;;;;;3.95;2.92;;;;;;;;;;5037045;28;20053;-73
2022/01/08 04:39:36;;;;;;;3.00;2.70;;;;;;;;;;5037870;28;20033;-73
2022/01/08 04:42:02;;;;;;;3.13;2.67;;;;;;;;;;5033990;28;20371;-73
2022/01/08 04:44:28;;;;;;;3.03;2.72;;;;;;;;;;5034812;28;20048;-73
2022/01/08 04:46:53;;;;;;;2.83;2.42;;;;;;;;;;5039081;28;20029;-72
2022/01/08 04:49:18;;;;;;;2.80;2.45;;;;;;;;;;5036073;28;20143;-72
2022/01/08 04:51:44;;;;;;;2.90;2.55;;;;;;;;;;5034254;28;20084;-72
2022/01/08 04:54:09;;;;;;;2.72;2.33;;;;;;;;;;5037203;28;20439;-72
2022/01/08 04:56:34;;;;;;;3.20;2.90;;;;;;;;;;5036355;28;20080;-72
2022/01/08 04:59:00;;;;;;;2.80;2.30;;;;;;;;;;5036317;28;20391;-73
2022/01/08 05:01:25;;;;;;;2.80;2.40;;;;;;;;;;5038704;28;20076;-72
2022/01/08 05:03:51;;;;;;;3.63;3.15;;;;;;;;;;5037275;28;20119;-72
2022/01/08 05:06:16;;;;;;;2.80;2.42;;;;;;;;;;5034424;28;20061;-72
2022/01/08 05:08:42;;;;;;;2.83;2.42;;;;;;;;;;5035880;28;20533;-72
2022/01/08 05:11:07;;;;;;;3.10;2.80;;;;;;;;;;5033439;28;20041;-72
2022/01/08 05:13:33;;;;;;;3.00;2.50;;;;;;;;;;5035779;28;20123;-71
2022/01/08 05:15:59;;;;;;;2.92;2.63;;;;;;;;;;5017954;28;20051;-69
2022/01/08 05:18:25;;;;;;;2.80;2.50;;;;;;;;;;5033479;28;20451;-71
2022/01/08 05:20:57;;;;;;;3.00;2.47;;;;;;;;;;5038564;28;20052;-70
2022/01/08 05:23:22;;;;;;;3.60;3.03;;;;;;;;;;5041543;28;20132;-69
2022/01/08 05:25:48;;;;;;;3.15;2.85;;;;;;;;;;5043141;28;20116;-69
2022/01/08 05:28:13;;;;;;;2.80;2.40;;;;;;;;;;5041280;28;20044;-69
2022/01/08 05:30:39;;;;;;;2.80;2.40;;;;;;;;;;5038188;28;20048;-70
2022/01/08 05:33:04;;;;;;;2.83;2.45;;;;;;;;;;5038995;28;20025;-69
2022/01/08 05:35:29;;;;;;;3.13;2.83;;;;;;;;;;5038037;28;20033;-69
2022/01/08 05:37:56;;;;;;;2.70;2.30;;;;;;;;;;5047001;28;20043;-69
2022/01/08 05:40:22;;;;;;;3.28;2.95;;;;;;;;;;5041261;28;20119;-67
2022/01/08 05:42:49;;;;;;;3.00;2.70;;;;;;;;;;5038290;28;20048;-68
2022/01/08 05:45:14;;;;;;;2.72;2.38;;;;;;;;;;5039302;28;20198;-68
2022/01/08 05:47:40;;;;;;;2.80;2.40;;;;;;;;;;5041333;28;20541;-68
2022/01/08 05:50:07;;;;;;;2.92;2.60;;;;;;;;;;5039894;28;20361;-68
2022/01/08 05:52:32;;;;;;;2.75;2.28;;;;;;;;;;5038798;28;20029;-68
2022/01/08 05:54:58;;;;;;;3.65;3.28;;;;;;;;;;5041340;28;20035;-67
2022/01/08 05:57:23;;;;;;;2.90;2.58;;;;;;;;;;5035937;28;20065;-68
2022/01/08 05:59:49;;;;;;;3.00;2.67;;;;;;;;;;5037700;28;20120;-68
2022/01/08 06:02:14;;;;;;;3.00;2.47;;;;;;;;;;5038865;28;20127;-69
2022/01/08 06:04:40;;;;;;;2.85;2.50;;;;;;;;;;5036731;28;20146;-66
2022/01/08 06:07:05;;;;;;;3.10;2.67;;;;;;;;;;5038712;28;20025;-67
2022/01/08 06:09:31;;;;;;;2.88;2.55;;;;;;;;;;5037447;28;20411;-66
2022/01/08 06:11:56;;;;;;;3.35;3.05;;;;;;;;;;5037664;28;20040;-68
2022/01/08 06:14:22;;;;;;;2.90;2.60;;;;;;;;;;5038987;28;20025;-68
2022/01/08 06:16:48;;;;;;;2.92;2.47;;;;;;;;;;5035913;28;20059;-68
2022/01/08 06:19:15;;;;;;;2.85;2.38;;;;;;;;;;5038904;28;20037;-68
2022/01/08 06:21:40;;;;;;;2.80;2.40;;;;;;;;;;5038506;28;20028;-69
2022/01/08 06:24:06;;;;;;;3.00;2.63;;;;;;;;;;5039755;28;20160;-69
2022/01/08 06:26:32;;;;;;;2.90;2.60;;;;;;;;;;5039056;28;20041;-68
2022/01/08 06:28:58;;;;;;;2.88;2.58;;;;;;;;;;5035462;28;20119;-69
2022/01/08 06:31:24;;;;;;;3.55;3.25;;;;;;;;;;5038154;28;20134;-69
2022/01/08 06:33:50;;;;;;;3.03;2.60;;;;;;;;;;5035145;28;20494;-69
2022/01/08 06:36:19;;;;;;;2.90;2.53;;;;;;;;;;5039305;28;20090;-69
2022/01/08 06:38:48;;;;;;;4.05;2.80;;;;;;;;;;5039646;28;20033;-68
2022/01/08 06:41:14;;;;;;;2.80;2.40;;;;;;;;;;5039077;28;20106;-68
2022/01/08 06:43:39;;;;;;;2.92;2.60;;;;;;;;;;5037009;28;20041;-67
2022/01/08 06:46:05;;;;;;;3.05;2.55;;;;;;;;;;5035942;28;20045;-68
2022/01/08 06:48:30;;;;;;;3.10;2.80;;;;;;;;;;5037827;28;20054;-67
2022/01/08 06:50:56;;;;;;;2.80;2.50;;;;;;;;;;5035884;28;20041;-69
2022/01/08 06:53:21;;;;;;;2.80;2.50;;;;;;;;;;5039367;28;20044;-68
2022/01/08 06:55:47;;;;;;;3.58;3.00;;;;;;;;;;5036217;28;20029;-68
2022/01/08 06:58:12;;;;;;;3.20;2.80;;;;;;;;;;5038167;28;20040;-67
2022/01/08 07:00:38;;;;;;;3.15;2.60;;;;;;;;;;5036371;28;20038;-68
2022/01/08 07:03:05;;;;;;;3.70;2.95;;;;;;;;;;5037084;28;20432;-65
2022/01/08 07:05:31;;;;;;;2.92;2.63;;;;;;;;;;5037285;28;20263;-65
2022/01/08 07:07:57;;;;;;;2.90;2.53;;;;;;;;;;5036611;28;20033;-68
2022/01/08 07:10:22;;;;;;;3.10;2.70;;;;;;;;;;5037556;28;20067;-65
2022/01/08 07:12:47;;;;;;;4.88;3.35;;;;;;;;;;5037115;28;20068;-65
2022/01/08 07:15:13;;;;;;;3.50;2.78;;;;;;;;;;5036182;28;20420;-65
2022/01/08 07:17:39;;;;;;;3.20;2.50;;;;;;;;;;5033258;28;20121;-65
2022/01/08 07:20:05;;;;;;;2.97;2.67;;;;;;;;;;5036418;28;20041;-65
2022/01/08 07:22:30;;;;;;;3.00;2.70;;;;;;;;;;5036832;28;20029;-64
2022/01/08 07:24:56;;;;;;;3.70;3.05;;;;;;;;;;5040252;28;20366;-64
2022/01/08 07:27:21;;;;;;;2.80;2.40;;;;;;;;;;5037863;28;20036;-64
2022/01/08 07:29:47;;;;;;;2.90;2.55;;;;;;;;;;5038849;28;20454;-64
2022/01/08 07:32:12;;;;;;;3.05;2.75;;;;;;;;;;5035545;28;20098;-64
2022/01/08 07:34:37;;;;;;;3.38;3.08;;;;;;;;;;5035410;28;20036;-62
2022/01/08 07:37:03;;;;;;;4.20;3.78;;;;;;;;;;5033702;28;20039;-63
2022/01/08 07:39:28;;;;;;;2.92;2.63;;;;;;;;;;5038206;28;20415;-64
2022/01/08 07:41:54;;;;;;;3.22;2.90;;;;;;;;;;5035290;28;20503;-63
2022/01/08 07:44:19;;;;;;;3.60;3.05;;;;;;;;;;5034425;28;20033;-63
2022/01/08 07:46:44;;;;;;;2.80;2.50;;;;;;;;;;5034289;28;20040;-62
2022/01/08 07:49:10;;;;;;;3.22;2.92;;;;;;;;;;5036452;28;20780;-63
2022/01/08 07:51:35;;;;;;;2.83;2.53;;;;;;;;;;5036716;28;20496;-62
2022/01/08 07:54:00;;;;;;;3.28;2.97;;;;;;;;;;5037600;28;20036;-62
2022/01/08 07:56:26;;;;;;;3.25;2.90;;;;;;;;;;5034348;28;20475;-63
2022/01/08 07:58:51;;;;;;;3.88;3.47;;;;;;;;;;5036540;28;20036;-62
2022/01/08 08:01:17;;;;;;;3.30;2.83;;;;;;;;;;5036736;28;20037;-62
2022/01/08 08:03:42;;;;;;;3.22;2.92;;;;;;;;;;5038356;28;20045;-62
2022/01/08 08:06:11;;;;;;;3.25;2.95;;;;;;;;;;5035324;28;20039;-62
2022/01/08 08:08:36;;;;;;;3.60;3.25;;;;;;;;;;5034492;28;20076;-62
2022/01/08 08:11:02;;;;;;;3.97;3.50;;;;;;;;;;5034161;28;20060;-62
2022/01/08 08:13:27;;;;;;;4.10;3.53;;;;;;;;;;5036619;28;20466;-62
2022/01/08 08:15:52;;;;;;;3.28;2.85;;;;;;;;;;5035906;28;20060;-63
2022/01/08 08:18:18;;;;;;;4.20;3.40;;;;;;;;;;5033116;28;20033;-61
2022/01/08 08:20:43;;;;;;;3.65;3.35;;;;;;;;;;5035161;28;20048;-62
2022/01/08 08:23:09;;;;;;;4.40;3.65;;;;;;;;;;5037947;28;20453;-63
2022/01/08 08:25:34;;;;;;;3.58;3.28;;;;;;;;;;5036652;28;20033;-61
2022/01/08 08:28:00;;;;;;;3.53;3.22;;;;;;;;;;5035653;28;20029;-63
2022/01/08 08:30:26;;;;;;;8.45;4.22;;;;;;;;;;5035914;28;20041;-63
2022/01/08 08:32:52;;;;;;;4.25;3.85;;;;;;;;;;5034900;28;20059;-63
2022/01/08 08:35:17;;;;;;;4.20;3.45;;;;;;;;;;5034058;28;20546;-62
2022/01/08 08:37:43;;;;;;;3.50;3.20;;;;;;;;;;5033206;28;20035;-63
2022/01/08 08:40:11;;;;;;;4.35;3.67;;;;;;;;;;5036368;28;20057;-63
2022/01/08 08:42:36;;;;;;;4.32;3.40;;;;;;;;;;5037437;28;20184;-63
2022/01/08 08:45:04;;;;;;;4.35;3.38;;;;;;;;;;5036240;28;20043;-64
2022/01/08 08:47:31;;;;;;;4.07;3.53;;;;;;;;;;5037135;28;20037;-64
2022/01/08 08:49:58;;;;;;;3.90;3.42;;;;;;;;;;5033139;28;20592;-65
2022/01/08 08:52:23;;;;;;;3.45;3.15;;;;;;;;;;5037874;28;20742;-65
2022/01/08 08:54:49;;;;;;;3.92;3.53;;;;;;;;;;5040984;28;20108;-65
2022/01/08 08:57:14;;;;;;;4.00;3.53;;;;;;;;;;5040826;28;20886;-65
2022/01/08 08:59:40;;;;;;;3.65;3.28;;;;;;;;;;5041097;28;20080;-66
2022/01/08 09:02:05;;;;;;;7.03;4.28;;;;;;;;;;5039004;28;20064;-67
2022/01/08 09:04:31;;;;;;;4.65;4.00;;;;;;;;;;5041646;28;20489;-67
2022/01/08 09:06:57;;;;;;;3.92;3.53;;;;;;;;;;5040083;28;20040;-66
2022/01/08 09:09:23;;;;;;;5.75;4.07;;;;;;;;;;5038061;28;20029;-68
2022/01/08 09:11:49;;;;;;;3.80;3.50;;;;;;;;;;5038734;28;20689;-68
2022/01/08 09:14:14;;;;;;;3.42;3.13;;;;;;;;;;5037115;28;20033;-69
2022/01/08 09:16:45;;;;;;;3.35;3.05;;;;;;;;;;5039073;28;20383;-68
2022/01/08 09:19:11;;;;;;;8.00;3.35;;;;;;;;;;5037390;28;20052;-62
2022/01/08 09:21:36;;;;;;;3.17;2.88;;;;;;;;;;5034829;28;20045;-68
2022/01/08 09:24:02;;;;;;;2.95;2.60;;;;;;;;;;5038289;28;20041;-64
2022/01/08 09:26:27;;;;;;;3.58;3.28;;;;;;;;;;5039638;28;20044;-61
2022/01/08 09:28:52;;;;;;;9.45;3.53;;;;;;;;;;5038556;28;20371;-64
2022/01/08 09:31:18;;;;;;;4.35;3.38;;;;;;;;;;5039496;28;20137;-63
2022/01/08 09:33:44;;;;;;;4.28;3.00;;;;;;;;;;5039362;28;20065;-64
2022/01/08 09:36:09;;;;;;;6.18;3.03;;;;;;;;;;5040920;28;20168;-63
2022/01/08 09:38:35;;;;;;;3.20;2.80;;;;;;;;;;5035011;28;20048;-63
2022/01/08 09:41:00;;;;;;;3.20;2.85;;;;;;;;;;5036169;28;20479;-63
2022/01/08 09:43:26;;;;;;;3.92;3.17;;;;;;;;;;5037162;28;20041;-63
2022/01/08 09:45:51;;;;;;;2.92;2.63;;;;;;;;;;5039005;28;20029;-63
2022/01/08 09:48:17;;;;;;;3.58;3.28;;;;;;;;;;5036301;28;20459;-63
2022/01/08 09:50:43;;;;;;;3.20;2.85;;;;;;;;;;5040133;28;20029;-64
2022/01/08 09:53:09;;;;;;;3.22;2.83;;;;;;;;;;5037316;28;20025;-62
2022/01/08 09:55:34;;;;;;;3.47;3.17;;;;;;;;;;5036805;28;20479;-62
2022/01/08 09:58:00;;;;;;;3.30;3.00;;;;;;;;;;5038230;28;20037;-59
2022/01/08 10:00:25;;;;;;;3.20;2.90;;;;;;;;;;5034682;28;20130;-59
2022/01/08 10:02:51;;;;;;;3.33;3.03;;;;;;;;;;5038126;28;20033;-60
2022/01/08 10:05:18;;;;;;;3.40;3.10;;;;;;;;;;5039493;28;20094;-59
2022/01/08 10:07:58;;;;;;;3.90;3.55;;;;;;;;;;5038718;28;20080;-59
2022/01/08 10:10:25;;;;;;;3.17;2.88;;;;;;;;;;5040556;28;20029;-60
2022/01/08 10:12:58;;;;;;;2.95;2.65;;;;;;;;;;5036912;28;20124;-60
2022/01/08 10:18:33;;;;;;;3.38;3.08;;;;;;;;;;5036073;28;20552;-61
2022/01/08 10:21:02;;;;;;;3.63;3.10;;;;;;;;;;5033198;28;20068;-60
2022/01/08 10:23:32;;;;;;;3.33;2.88;;;;;;;;;;5032757;28;20446;-61
2022/01/08 10:26:04;;;;;;;4.13;3.47;;;;;;;;;;5035931;28;20114;-61
2022/01/08 10:28:35;;;;;;;7.93;3.53;;;;;;;;;;5039016;28;20036;-61
2022/01/08 10:31:17;;;;;;;3.78;3.38;;;;;;;;;;5037597;28;20421;-60
2022/01/08 10:34:08;;;;;;;3.53;3.22;;;;;;;;;;5037615;28;20044;-62
2022/01/08 10:36:57;;;;;;;4.53;4.13;;;;;;;;;;5027803;28;20133;-60
2022/01/08 10:39:28;;;;;;;4.05;3.65;;;;;;;;;;5036418;28;20102;-61
2022/01/08 10:41:54;;;;;;;3.35;3.05;;;;;;;;;;5042336;28;20518;-60
2022/01/08 10:44:22;;;;;;;3.20;2.90;;;;;;;;;;5037167;28;20071;-60
2022/01/08 10:46:56;;;;;;;4.13;3.70;;;;;;;;;;5038164;28;20122;-61
2022/01/08 10:49:37;;;;;;;3.85;3.45;;;;;;;;;;5032025;28;20538;-61
2022/01/08 10:52:07;;;;;;;3.13;2.83;;;;;;;;;;5036020;28;20545;-61
2022/01/08 10:54:35;;;;;;;3.85;3.53;;;;;;;;;;5039212;28;20419;-61
2022/01/08 10:57:03;;;;;;;4.07;3.67;;;;;;;;;;5037310;28;20215;-61
2022/01/08 10:59:30;;;;;;;4.88;4.38;;;;;;;;;;5036625;28;20033;-60
2022/01/08 11:01:59;;;;;;;5.10;3.95;;;;;;;;;;5036503;28;20039;-60
2022/01/08 11:04:41;;;;;;;5.97;4.25;;;;;;;;;;5036251;28;20049;-61
2022/01/08 11:07:23;;;;;;;5.18;4.00;;;;;;;;;;5035544;28;20132;-60
2022/01/08 11:10:01;;;;;;;3.70;3.28;;;;;;;;;;5035356;28;20403;-60
2022/01/08 11:12:33;;;;;;;3.40;3.10;;;;;;;;;;5035464;28;20045;-60
2022/01/08 11:17:45;;;;;;;4.00;3.63;;;;;;;;;;5033889;28;20033;-61
2022/01/08 11:20:18;;;;;;;3.28;2.97;;;;;;;;;;5034195;28;20128;-60
2022/01/08 11:22:49;;;;;;;4.13;3.72;;;;;;;;;;5031946;28;20045;-60
2022/01/08 11:25:18;;;;;;;3.40;3.10;;;;;;;;;;5037075;28;20037;-59
2022/01/08 11:28:10;;;;;;;4.38;3.97;;;;;;;;;;5038054;28;20438;-60
2022/01/08 11:30:55;;;;;;;3.75;3.45;;;;;;;;;;5039004;28;20108;-60
2022/01/08 11:33:33;;;;;;;3.38;3.08;;;;;;;;;;5037410;28;20040;-60
2022/01/08 11:35:59;;;;;;;13.50;3.78;;;;;;;;;;5038207;28;20037;-60
2022/01/08 11:38:27;;;;;;;3.88;3.47;;;;;;;;;;5033497;28;20106;-60
2022/01/08 11:40:55;;;;;;;4.45;3.95;;;;;;;;;;5033267;28;20033;-60
2022/01/08 11:43:23;;;;;;;3.97;3.60;;;;;;;;;;5032633;28;20030;-60
2022/01/08 11:45:52;;;;;;;4.13;3.65;;;;;;;;;;5034285;28;20041;-60
2022/01/08 11:48:21;;;;;;;3.17;2.88;;;;;;;;;;5035993;28;20043;-60
2022/01/08 11:50:55;;;;;;;3.65;2.85;;;;;;;;;;5030679;28;20732;-60
2022/01/08 11:53:26;;;;;;;6.30;3.35;;;;;;;;;;5032312;28;20032;-60
2022/01/08 11:55:57;;;;;;;3.40;3.10;;;;;;;;;;5034980;28;20025;-59
2022/01/08 11:58:27;;;;;;;3.95;3.55;;;;;;;;;;5033750;28;20474;-59
2022/01/08 12:01:03;;;;;;;3.22;2.92;;;;;;;;;;5037360;28;20028;-59
2022/01/08 12:03:31;;;;;;;4.45;3.53;;;;;;;;;;5036139;28;20047;-59
2022/01/08 12:05:57;;;;;;;3.50;2.92;;;;;;;;;;5036560;28;20048;-60
2022/01/08 12:08:56;;;;;;;3.40;3.10;;;;;;;;;;5034719;28;20080;-61
2022/01/08 12:11:21;;;;;;;3.47;3.17;;;;;;;;;;5035438;28;20115;-60
2022/01/08 12:13:48;;;;;;;3.30;3.00;;;;;;;;;;5037539;28;20120;-60
2022/01/08 12:16:38;;;;;;;3.10;2.80;;;;;;;;;;5038532;28;20124;-60
2022/01/08 12:19:06;;;;;;;3.33;3.03;;;;;;;;;;5036692;28;20112;-60
2022/01/08 12:21:37;;;;;;;4.63;4.13;;;;;;;;;;5033056;28;20652;-60
2022/01/08 12:24:20;;;;;;;3.10;2.80;;;;;;;;;;5034332;28;20459;-60
2022/01/08 12:26:46;;;;;;;3.17;2.88;;;;;;;;;;5033934;28;20044;-60
2022/01/08 12:29:37;;;;;;;3.63;3.30;;;;;;;;;;5033208;28;20033;-60
2022/01/08 12:32:15;;;;;;;;;;;;;;;;;;5038247;28;20557;-60
2022/01/08 12:34:46;;;;;;;4.22;3.83;;;;;;;;;;5036022;28;20361;-61
2022/01/08 12:37:12;;;;;;;;;;;;;;;;;;5035340;28;20029;-60
2022/01/08 12:39:44;;;;;;;3.60;3.30;;;;;;;;;;5036071;28;20043;-61
2022/01/08 12:42:21;;;;;;;2.80;2.50;;;;;;;;;;5035742;28;20044;-60
2022/01/08 12:45:15;;;;;;;3.55;3.22;;;;;;;;;;5035320;28;20136;-61
2022/01/08 12:47:55;;;;;;;3.63;3.08;;;;;;;;;;5037210;28;20041;-60
2022/01/08 12:50:38;;;;;;;7.03;3.60;;;;;;;;;;5033887;28;20039;-60
2022/01/08 12:53:03;;;;;;;3.10;2.80;;;;;;;;;;5035594;28;20028;-61
2022/01/08 12:55:43;;;;;;;11.80;3.47;;;;;;;;;;5037452;28;20088;-61
2022/01/08 12:58:24;;;;;;;3.40;3.08;;;;;;;;;;5036080;28;20033;-60
2022/01/08 13:00:53;;;;;;;3.58;3.25;;;;;;;;;;5035960;28;20564;-60
2022/01/08 13:03:25;;;;;;;3.70;3.40;;;;;;;;;;5037049;28;20084;-61
2022/01/08 13:05:51;;;;;;;2.95;2.65;;;;;;;;;;5035364;28;20033;-60
2022/01/08 13:08:24;;;;;;;3.45;3.15;;;;;;;;;;5036028;28;20091;-60
2022/01/08 13:10:56;;;;;;;3.20;2.85;;;;;;;;;;5034247;28;20119;-60
2022/01/08 13:13:25;;;;;;;3.50;2.90;;;;;;;;;;5031265;28;20653;-60
2022/01/08 13:15:54;;;;;;;4.18;3.58;;;;;;;;;;5036336;28;20041;-60
2022/01/08 13:18:21;;;;;;;3.20;2.90;;;;;;;;;;5040010;28;20029;-60
2022/01/08 13:20:58;;;;;;;3.30;3.00;;;;;;;;;;5018235;28;20041;-60
2022/01/08 13:23:24;;;;;;;2.83;2.50;;;;;;;;;;5030719;28;20072;-60
2022/01/08 13:25:55;;;;;;;3.53;3.22;;;;;;;;;;5033044;28;20490;-60
2022/01/08 13:28:24;;;;;;;3.33;3.03;;;;;;;;;;5043141;28;20407;-60
2022/01/08 13:30:51;;;;;;;3.30;3.00;;;;;;;;;;5035520;28;20044;-61
2022/01/08 13:33:24;;;;;;;9.07;3.20;;;;;;;;;;5035782;28;20553;-60
2022/01/08 13:36:00;;;;;;;3.00;2.70;;;;;;;;;;5034407;28;20459;-61
2022/01/08 13:38:36;;;;;;;3.80;3.20;;;;;;;;;;5034233;28;20136;-60
2022/01/08 13:41:20;;;;;;;4.00;3.08;;;;;;;;;;5035353;28;20103;-60
2022/01/08 13:43:59;;;;;;;3.53;3.22;;;;;;;;;;5041541;28;20108;-60
2022/01/08 13:46:27;;;;;;;3.15;2.85;;;;;;;;;;5039331;28;20032;-60
2022/01/08 13:48:54;;;;;;;3.08;2.78;;;;;;;;;;5037188;28;20447;-60
2022/01/08 13:51:23;;;;;;;3.72;2.65;;;;;;;;;;5037132;28;20130;-60
2022/01/08 13:53:58;;;;;;;3.53;3.22;;;;;;;;;;5038782;28;20071;-60
2022/01/08 13:56:25;;;;;;;4.45;2.78;;;;;;;;;;5038839;28;20088;-60
2022/01/08 13:58:50;;;;;;;3.42;3.03;;;;;;;;;;5038525;28;20482;-60
2022/01/08 14:01:17;;;;;;;3.85;3.38;;;;;;;;;;5037373;28;20072;-60
2022/01/08 14:03:47;;;;;;;3.85;3.45;;;;;;;;;;5035119;28;20029;-61
2022/01/08 14:06:24;;;;;;;3.10;2.80;;;;;;;;;;5039573;28;20045;-61
2022/01/08 14:08:58;;;;;;;3.17;2.88;;;;;;;;;;5039391;28;20075;-60
2022/01/08 14:11:24;;;;;;;3.45;3.15;;;;;;;;;;5037216;28;20059;-60
2022/01/08 14:13:53;;;;;;;3.63;3.33;;;;;;;;;;5037908;28;20646;-60
2022/01/08 14:16:35;;;;;;;3.35;3.05;;;;;;;;;;5039498;28;20090;-60
2022/01/08 14:19:14;;;;;;;4.22;3.33;;;;;;;;;;5036357;28;20052;-60
2022/01/08 14:21:52;;;;;;;3.00;2.70;;;;;;;;;;5039289;28;20047;-60
2022/01/08 14:24:23;;;;;;;3.58;3.28;;;;;;;;;;5038346;28;20029;-61
2022/01/08 14:27:04;;;;;;;3.20;2.90;;;;;;;;;;5035906;28;20202;-61
2022/01/08 14:29:31;;;;;;;3.38;3.00;;;;;;;;;;5038887;28;20525;-61
2022/01/08 14:32:02;;;;;;;3.08;2.78;;;;;;;;;;5035493;28;20422;-61
2022/01/08 14:34:28;;;;;;;3.78;3.45;;;;;;;;;;5037728;28;20058;-61
2022/01/08 14:36:56;;;;;;;3.58;3.28;;;;;;;;;;5037702;28;20034;-61
2022/01/08 14:39:48;;;;;;;4.63;3.20;;;;;;;;;;5038504;28;20025;-61
2022/01/08 14:42:18;;;;;;;3.30;2.90;;;;;;;;;;5036874;28;20559;-60
2022/01/08 14:44:58;;;;;;;3.55;3.25;;;;;;;;;;5039440;28;20109;-61
2022/01/08 14:47:31;;;;;;;3.13;2.83;;;;;;;;;;5036110;28;20485;-61
2022/01/08 14:49:56;;;;;;;3.00;2.70;;;;;;;;;;5038999;28;20165;-61
2022/01/08 14:52:22;;;;;;;3.05;2.75;;;;;;;;;;5036123;28;20108;-61
2022/01/08 14:54:47;;;;;;;4.00;3.60;;;;;;;;;;5039418;28;20060;-61
2022/01/08 14:57:13;;;;;;;3.13;2.83;;;;;;;;;;5035300;28;20497;-61
2022/01/08 14:59:38;;;;;;;3.47;3.17;;;;;;;;;;5038814;28;20371;-60
2022/01/08 15:02:04;;;;;;;5.72;4.47;;;;;;;;;;5036893;28;20485;-61
2022/01/08 15:04:30;;;;;;;10.52;4.85;;;;;;;;;;5036243;28;20926;-61
2022/01/08 15:06:55;;;;;;;14.88;3.65;;;;;;;;;;5040223;28;20087;-61
2022/01/08 15:09:21;;;;;;;18.58;7.55;;;;;;;;;;5040614;28;20033;-61
2022/01/08 15:11:47;;;;;;;3.58;3.22;;;;;;;;;;5037237;28;20878;-61
2022/01/08 15:14:12;;;;;;;4.68;4.20;;;;;;;;;;5036527;28;20041;-60
2022/01/08 15:16:39;;;;;;;3.00;2.70;;;;;;;;;;5039527;28;20043;-61